sensor_id;sensor_type;location;lat;lon;timestamp;P1;durP1;ratioP1;P2;durP2;ratioP2
58661;SDS011;44432;49.786;22.760;2023-12-20T00:00:14;10.70;;;6.00;;
58661;SDS011;44432;49.786;22.760;2023-12-20T00:03:05;10.60;;;6.50;;
58661;SDS011;44432;49.786;22.760;2023-12-20T00:05:36;13.90;;;7.40;;
58661;SDS011;44432;49.786;22.760;2023-12-20T00:08:09;10.50;;;5.80;;
58661;SDS011;44432;49.786;22.760;2023-12-20T00:10:40;11.10;;;7.00;;
58661;SDS011;44432;49.786;22.760;2023-12-20T00:13:12;13.60;;;7.60;;
58661;SDS011;44432;49.786;22.760;2023-12-20T00:15:43;11.00;;;6.50;;
58661;SDS011;44432;49.786;22.760;2023-12-20T00:18:14;10.20;;;6.20;;
58661;SDS011;44432;49.786;22.760;2023-12-20T00:20:44;11.10;;;6.70;;
58661;SDS011;44432;49.786;22.760;2023-12-20T00:23:15;16.20;;;6.70;;
58661;SDS011;44432;49.786;22.760;2023-12-20T00:25:46;8.60;;;5.70;;
58661;SDS011;44432;49.786;22.760;2023-12-20T00:28:17;10.20;;;6.70;;
58661;SDS011;44432;49.786;22.760;2023-12-20T00:30:47;9.30;;;5.50;;
58661;SDS011;44432;49.786;22.760;2023-12-20T00:33:18;9.60;;;6.40;;
58661;SDS011;44432;49.786;22.760;2023-12-20T00:35:49;10.00;;;5.80;;
58661;SDS011;44432;49.786;22.760;2023-12-20T00:38:20;10.30;;;6.10;;
58661;SDS011;44432;49.786;22.760;2023-12-20T00:40:51;9.70;;;5.30;;
58661;SDS011;44432;49.786;22.760;2023-12-20T00:43:21;8.10;;;5.20;;
58661;SDS011;44432;49.786;22.760;2023-12-20T01:38:21;8.40;;;5.20;;
58661;SDS011;44432;49.786;22.760;2023-12-20T01:40:53;11.10;;;5.40;;
58661;SDS011;44432;49.786;22.760;2023-12-20T01:43:23;9.20;;;4.60;;
58661;SDS011;44432;49.786;22.760;2023-12-20T01:45:54;9.10;;;5.40;;
58661;SDS011;44432;49.786;22.760;2023-12-20T01:48:26;8.70;;;5.20;;
58661;SDS011;44432;49.786;22.760;2023-12-20T01:51:00;9.80;;;6.10;;
58661;SDS011;44432;49.786;22.760;2023-12-20T01:53:31;8.60;;;5.20;;
58661;SDS011;44432;49.786;22.760;2023-12-20T01:56:03;8.90;;;5.60;;
58661;SDS011;44432;49.786;22.760;2023-12-20T01:58:35;7.70;;;4.80;;
58661;SDS011;44432;49.786;22.760;2023-12-20T02:01:13;14.10;;;5.50;;
58661;SDS011;44432;49.786;22.760;2023-12-20T02:03:44;8.80;;;5.10;;
58661;SDS011;44432;49.786;22.760;2023-12-20T02:06:16;8.50;;;4.90;;
58661;SDS011;44432;49.786;22.760;2023-12-20T02:08:50;8.10;;;5.00;;
58661;SDS011;44432;49.786;22.760;2023-12-20T02:11:21;9.60;;;5.40;;
58661;SDS011;44432;49.786;22.760;2023-12-20T02:13:52;8.80;;;4.80;;
58661;SDS011;44432;49.786;22.760;2023-12-20T02:16:23;9.30;;;5.30;;
58661;SDS011;44432;49.786;22.760;2023-12-20T02:18:55;7.70;;;4.60;;
58661;SDS011;44432;49.786;22.760;2023-12-20T02:21:31;9.60;;;5.20;;
58661;SDS011;44432;49.786;22.760;2023-12-20T02:24:02;7.80;;;5.00;;
58661;SDS011;44432;49.786;22.760;2023-12-20T02:26:34;8.60;;;5.10;;
58661;SDS011;44432;49.786;22.760;2023-12-20T02:29:05;8.50;;;5.10;;
58661;SDS011;44432;49.786;22.760;2023-12-20T02:31:35;7.40;;;4.70;;
58661;SDS011;44432;49.786;22.760;2023-12-20T02:34:06;9.10;;;5.40;;
58661;SDS011;44432;49.786;22.760;2023-12-20T02:36:37;8.40;;;4.80;;
58661;SDS011;44432;49.786;22.760;2023-12-20T02:39:08;7.10;;;4.30;;
58661;SDS011;44432;49.786;22.760;2023-12-20T02:41:38;7.40;;;4.50;;
58661;SDS011;44432;49.786;22.760;2023-12-20T02:44:09;10.20;;;5.20;;
58661;SDS011;44432;49.786;22.760;2023-12-20T02:46:40;8.20;;;4.90;;
58661;SDS011;44432;49.786;22.760;2023-12-20T02:49:11;8.90;;;5.00;;
58661;SDS011;44432;49.786;22.760;2023-12-20T02:51:42;7.30;;;4.70;;
58661;SDS011;44432;49.786;22.760;2023-12-20T02:54:12;7.50;;;4.70;;
58661;SDS011;44432;49.786;22.760;2023-12-20T02:56:43;7.50;;;4.60;;
58661;SDS011;44432;49.786;22.760;2023-12-20T02:59:14;8.40;;;4.80;;
58661;SDS011;44432;49.786;22.760;2023-12-20T03:01:45;7.50;;;4.50;;
58661;SDS011;44432;49.786;22.760;2023-12-20T03:04:16;7.70;;;4.80;;
58661;SDS011;44432;49.786;22.760;2023-12-20T03:06:47;9.20;;;5.00;;
58661;SDS011;44432;49.786;22.760;2023-12-20T03:09:18;8.90;;;5.10;;
58661;SDS011;44432;49.786;22.760;2023-12-20T03:11:48;10.50;;;5.10;;
58661;SDS011;44432;49.786;22.760;2023-12-20T03:14:19;7.10;;;4.60;;
58661;SDS011;44432;49.786;22.760;2023-12-20T03:16:50;9.00;;;5.00;;
58661;SDS011;44432;49.786;22.760;2023-12-20T03:19:21;8.30;;;5.30;;
58661;SDS011;44432;49.786;22.760;2023-12-20T03:21:52;10.00;;;5.30;;
58661;SDS011;44432;49.786;22.760;2023-12-20T03:24:23;8.70;;;5.10;;
58661;SDS011;44432;49.786;22.760;2023-12-20T03:26:53;9.00;;;4.90;;
58661;SDS011;44432;49.786;22.760;2023-12-20T03:29:24;11.70;;;5.00;;
58661;SDS011;44432;49.786;22.760;2023-12-20T03:31:55;6.90;;;4.60;;
58661;SDS011;44432;49.786;22.760;2023-12-20T03:34:26;8.30;;;4.90;;
58661;SDS011;44432;49.786;22.760;2023-12-20T03:36:57;10.80;;;5.30;;
58661;SDS011;44432;49.786;22.760;2023-12-20T03:39:27;9.20;;;5.00;;
58661;SDS011;44432;49.786;22.760;2023-12-20T03:41:58;16.60;;;5.60;;
58661;SDS011;44432;49.786;22.760;2023-12-20T03:44:29;10.60;;;5.60;;
58661;SDS011;44432;49.786;22.760;2023-12-20T03:47:00;11.40;;;6.40;;
58661;SDS011;44432;49.786;22.760;2023-12-20T03:49:31;9.60;;;5.20;;
58661;SDS011;44432;49.786;22.760;2023-12-20T03:52:05;12.10;;;5.30;;
58661;SDS011;44432;49.786;22.760;2023-12-20T03:54:36;8.00;;;5.00;;
58661;SDS011;44432;49.786;22.760;2023-12-20T03:57:06;10.10;;;5.60;;
58661;SDS011;44432;49.786;22.760;2023-12-20T03:59:37;10.10;;;5.80;;
58661;SDS011;44432;49.786;22.760;2023-12-20T04:02:08;9.90;;;5.90;;
58661;SDS011;44432;49.786;22.760;2023-12-20T04:04:39;8.60;;;5.30;;
58661;SDS011;44432;49.786;22.760;2023-12-20T04:07:10;21.00;;;6.80;;
58661;SDS011;44432;49.786;22.760;2023-12-20T04:09:41;15.20;;;5.80;;
58661;SDS011;44432;49.786;22.760;2023-12-20T04:12:12;14.50;;;6.20;;
58661;SDS011;44432;49.786;22.760;2023-12-20T04:14:43;12.70;;;5.60;;
58661;SDS011;44432;49.786;22.760;2023-12-20T04:17:14;9.40;;;5.80;;
58661;SDS011;44432;49.786;22.760;2023-12-20T04:19:45;13.00;;;5.70;;
58661;SDS011;44432;49.786;22.760;2023-12-20T04:22:16;12.30;;;5.70;;
58661;SDS011;44432;49.786;22.760;2023-12-20T04:24:47;10.70;;;5.40;;
58661;SDS011;44432;49.786;22.760;2023-12-20T04:27:18;11.50;;;5.40;;
58661;SDS011;44432;49.786;22.760;2023-12-20T04:29:49;11.00;;;5.80;;
58661;SDS011;44432;49.786;22.760;2023-12-20T04:32:19;11.70;;;6.10;;
58661;SDS011;44432;49.786;22.760;2023-12-20T04:34:50;12.80;;;5.70;;
58661;SDS011;44432;49.786;22.760;2023-12-20T04:37:21;11.10;;;6.00;;
58661;SDS011;44432;49.786;22.760;2023-12-20T04:39:51;9.50;;;5.10;;
58661;SDS011;44432;49.786;22.760;2023-12-20T04:42:22;10.10;;;5.40;;
58661;SDS011;44432;49.786;22.760;2023-12-20T04:44:53;11.10;;;5.80;;
58661;SDS011;44432;49.786;22.760;2023-12-20T04:47:24;11.60;;;5.90;;
58661;SDS011;44432;49.786;22.760;2023-12-20T04:49:54;14.50;;;6.10;;
58661;SDS011;44432;49.786;22.760;2023-12-20T04:52:25;11.30;;;5.50;;
58661;SDS011;44432;49.786;22.760;2023-12-20T04:54:56;10.40;;;6.00;;
58661;SDS011;44432;49.786;22.760;2023-12-20T04:57:27;13.10;;;6.10;;
58661;SDS011;44432;49.786;22.760;2023-12-20T04:59:58;13.30;;;7.40;;
58661;SDS011;44432;49.786;22.760;2023-12-20T05:02:29;19.10;;;9.80;;
58661;SDS011;44432;49.786;22.760;2023-12-20T05:04:59;12.80;;;6.60;;
58661;SDS011;44432;49.786;22.760;2023-12-20T05:07:30;10.00;;;6.10;;
58661;SDS011;44432;49.786;22.760;2023-12-20T05:10:01;16.40;;;7.10;;
58661;SDS011;44432;49.786;22.760;2023-12-20T05:12:33;10.30;;;6.30;;
58661;SDS011;44432;49.786;22.760;2023-12-20T05:15:05;13.40;;;6.40;;
58661;SDS011;44432;49.786;22.760;2023-12-20T05:17:37;14.60;;;6.90;;
58661;SDS011;44432;49.786;22.760;2023-12-20T05:20:09;13.10;;;7.00;;
58661;SDS011;44432;49.786;22.760;2023-12-20T05:22:40;14.10;;;6.10;;
58661;SDS011;44432;49.786;22.760;2023-12-20T05:25:12;10.80;;;6.70;;
58661;SDS011;44432;49.786;22.760;2023-12-20T05:27:43;14.30;;;6.20;;
58661;SDS011;44432;49.786;22.760;2023-12-20T05:30:14;11.90;;;6.50;;
58661;SDS011;44432;49.786;22.760;2023-12-20T05:32:45;9.80;;;5.50;;
58661;SDS011;44432;49.786;22.760;2023-12-20T05:35:16;10.20;;;5.50;;
58661;SDS011;44432;49.786;22.760;2023-12-20T05:37:47;17.60;;;7.00;;
58661;SDS011;44432;49.786;22.760;2023-12-20T05:40:18;10.20;;;5.50;;
58661;SDS011;44432;49.786;22.760;2023-12-20T05:42:49;15.20;;;6.00;;
58661;SDS011;44432;49.786;22.760;2023-12-20T05:45:20;10.20;;;6.00;;
58661;SDS011;44432;49.786;22.760;2023-12-20T05:47:51;11.40;;;6.50;;
58661;SDS011;44432;49.786;22.760;2023-12-20T05:50:22;12.30;;;7.00;;
58661;SDS011;44432;49.786;22.760;2023-12-20T05:52:53;10.60;;;6.90;;
58661;SDS011;44432;49.786;22.760;2023-12-20T05:55:23;13.10;;;6.90;;
58661;SDS011;44432;49.786;22.760;2023-12-20T05:57:54;12.80;;;7.30;;
58661;SDS011;44432;49.786;22.760;2023-12-20T06:00:25;11.90;;;7.20;;
58661;SDS011;44432;49.786;22.760;2023-12-20T06:02:56;10.60;;;6.40;;
58661;SDS011;44432;49.786;22.760;2023-12-20T06:05:26;11.20;;;7.00;;
58661;SDS011;44432;49.786;22.760;2023-12-20T06:07:57;13.80;;;7.20;;
58661;SDS011;44432;49.786;22.760;2023-12-20T06:13:00;13.00;;;7.80;;
58661;SDS011;44432;49.786;22.760;2023-12-20T06:15:32;11.80;;;6.40;;
58661;SDS011;44432;49.786;22.760;2023-12-20T06:18:03;11.40;;;7.10;;
58661;SDS011;44432;49.786;22.760;2023-12-20T06:20:35;11.90;;;7.10;;
58661;SDS011;44432;49.786;22.760;2023-12-20T06:23:06;12.10;;;7.20;;
58661;SDS011;44432;49.786;22.760;2023-12-20T06:25:37;11.50;;;6.70;;
58661;SDS011;44432;49.786;22.760;2023-12-20T06:28:08;14.80;;;7.90;;
58661;SDS011;44432;49.786;22.760;2023-12-20T06:30:42;12.70;;;7.00;;
58661;SDS011;44432;49.786;22.760;2023-12-20T06:33:15;13.10;;;7.00;;
58661;SDS011;44432;49.786;22.760;2023-12-20T06:35:46;14.00;;;9.00;;
58661;SDS011;44432;49.786;22.760;2023-12-20T06:38:17;13.50;;;8.00;;
58661;SDS011;44432;49.786;22.760;2023-12-20T06:40:49;14.50;;;9.70;;
58661;SDS011;44432;49.786;22.760;2023-12-20T06:43:20;16.90;;;9.90;;
58661;SDS011;44432;49.786;22.760;2023-12-20T06:45:51;13.90;;;8.80;;
58661;SDS011;44432;49.786;22.760;2023-12-20T06:48:21;12.10;;;7.40;;
58661;SDS011;44432;49.786;22.760;2023-12-20T06:50:52;16.40;;;9.00;;
58661;SDS011;44432;49.786;22.760;2023-12-20T06:53:23;34.40;;;16.20;;
58661;SDS011;44432;49.786;22.760;2023-12-20T06:55:54;27.80;;;12.80;;
58661;SDS011;44432;49.786;22.760;2023-12-20T06:58:25;32.00;;;18.50;;
58661;SDS011;44432;49.786;22.760;2023-12-20T07:00:56;36.40;;;15.70;;
58661;SDS011;44432;49.786;22.760;2023-12-20T07:03:27;22.10;;;9.20;;
58661;SDS011;44432;49.786;22.760;2023-12-20T07:05:57;29.30;;;11.70;;
58661;SDS011;44432;49.786;22.760;2023-12-20T07:08:28;33.70;;;19.30;;
58661;SDS011;44432;49.786;22.760;2023-12-20T07:10:59;21.80;;;8.80;;
58661;SDS011;44432;49.786;22.760;2023-12-20T07:13:30;15.10;;;7.60;;
58661;SDS011;44432;49.786;22.760;2023-12-20T07:16:01;14.90;;;7.00;;
58661;SDS011;44432;49.786;22.760;2023-12-20T07:18:32;16.60;;;7.30;;
58661;SDS011;44432;49.786;22.760;2023-12-20T07:21:04;15.50;;;7.10;;
58661;SDS011;44432;49.786;22.760;2023-12-20T07:23:35;12.50;;;6.80;;
58661;SDS011;44432;49.786;22.760;2023-12-20T07:26:06;19.90;;;9.10;;
58661;SDS011;44432;49.786;22.760;2023-12-20T07:28:37;29.90;;;8.20;;
58661;SDS011;44432;49.786;22.760;2023-12-20T07:31:09;24.10;;;11.50;;
58661;SDS011;44432;49.786;22.760;2023-12-20T07:33:40;27.90;;;7.60;;
58661;SDS011;44432;49.786;22.760;2023-12-20T07:36:11;11.40;;;6.20;;
58661;SDS011;44432;49.786;22.760;2023-12-20T07:38:42;11.90;;;6.40;;
58661;SDS011;44432;49.786;22.760;2023-12-20T07:41:13;16.40;;;7.00;;
58661;SDS011;44432;49.786;22.760;2023-12-20T07:43:45;16.90;;;7.40;;
58661;SDS011;44432;49.786;22.760;2023-12-20T07:46:15;19.30;;;7.20;;
58661;SDS011;44432;49.786;22.760;2023-12-20T07:48:50;20.10;;;10.70;;
58661;SDS011;44432;49.786;22.760;2023-12-20T07:51:21;11.00;;;6.60;;
58661;SDS011;44432;49.786;22.760;2023-12-20T07:53:52;12.40;;;6.50;;
58661;SDS011;44432;49.786;22.760;2023-12-20T07:56:23;20.90;;;9.30;;
58661;SDS011;44432;49.786;22.760;2023-12-20T07:58:54;19.30;;;8.80;;
58661;SDS011;44432;49.786;22.760;2023-12-20T08:01:25;14.40;;;7.30;;
58661;SDS011;44432;49.786;22.760;2023-12-20T08:03:55;16.00;;;8.40;;
58661;SDS011;44432;49.786;22.760;2023-12-20T08:06:26;11.40;;;6.70;;
58661;SDS011;44432;49.786;22.760;2023-12-20T08:08:57;11.40;;;6.30;;
58661;SDS011;44432;49.786;22.760;2023-12-20T08:11:28;10.60;;;6.40;;
58661;SDS011;44432;49.786;22.760;2023-12-20T08:13:59;12.80;;;7.60;;
58661;SDS011;44432;49.786;22.760;2023-12-20T08:16:29;14.90;;;7.80;;
58661;SDS011;44432;49.786;22.760;2023-12-20T08:19:00;35.30;;;18.70;;
58661;SDS011;44432;49.786;22.760;2023-12-20T08:21:31;36.50;;;17.30;;
58661;SDS011;44432;49.786;22.760;2023-12-20T08:24:02;30.40;;;14.00;;
58661;SDS011;44432;49.786;22.760;2023-12-20T08:26:34;25.20;;;11.90;;
58661;SDS011;44432;49.786;22.760;2023-12-20T08:29:05;16.20;;;9.80;;
58661;SDS011;44432;49.786;22.760;2023-12-20T08:31:36;27.70;;;9.80;;
58661;SDS011;44432;49.786;22.760;2023-12-20T08:34:06;13.50;;;7.80;;
58661;SDS011;44432;49.786;22.760;2023-12-20T08:36:39;20.50;;;8.50;;
58661;SDS011;44432;49.786;22.760;2023-12-20T08:39:10;15.80;;;8.10;;
58661;SDS011;44432;49.786;22.760;2023-12-20T08:41:41;29.30;;;11.30;;
58661;SDS011;44432;49.786;22.760;2023-12-20T08:44:15;20.30;;;12.30;;
58661;SDS011;44432;49.786;22.760;2023-12-20T08:49:15;17.60;;;9.50;;
58661;SDS011;44432;49.786;22.760;2023-12-20T08:51:46;16.30;;;9.30;;
58661;SDS011;44432;49.786;22.760;2023-12-20T08:54:16;13.50;;;8.60;;
58661;SDS011;44432;49.786;22.760;2023-12-20T08:56:47;15.20;;;8.50;;
58661;SDS011;44432;49.786;22.760;2023-12-20T08:59:18;22.60;;;9.30;;
58661;SDS011;44432;49.786;22.760;2023-12-20T09:01:49;16.40;;;8.50;;
58661;SDS011;44432;49.786;22.760;2023-12-20T09:06:51;13.20;;;7.20;;
58661;SDS011;44432;49.786;22.760;2023-12-20T09:09:22;29.30;;;9.50;;
58661;SDS011;44432;49.786;22.760;2023-12-20T09:11:53;24.60;;;9.30;;
58661;SDS011;44432;49.786;22.760;2023-12-20T09:14:24;22.90;;;13.90;;
58661;SDS011;44432;49.786;22.760;2023-12-20T09:16:55;15.30;;;9.00;;
58661;SDS011;44432;49.786;22.760;2023-12-20T09:19:25;22.00;;;12.40;;
58661;SDS011;44432;49.786;22.760;2023-12-20T09:21:57;28.10;;;10.80;;
58661;SDS011;44432;49.786;22.760;2023-12-20T09:24:28;20.60;;;11.10;;
58661;SDS011;44432;49.786;22.760;2023-12-20T09:26:59;25.20;;;11.60;;
58661;SDS011;44432;49.786;22.760;2023-12-20T09:29:30;25.90;;;11.30;;
58661;SDS011;44432;49.786;22.760;2023-12-20T09:32:02;21.30;;;9.20;;
58661;SDS011;44432;49.786;22.760;2023-12-20T09:34:33;22.20;;;9.40;;
58661;SDS011;44432;49.786;22.760;2023-12-20T09:37:05;24.90;;;12.70;;
58661;SDS011;44432;49.786;22.760;2023-12-20T09:39:35;20.10;;;10.60;;
58661;SDS011;44432;49.786;22.760;2023-12-20T09:42:06;15.70;;;8.90;;
58661;SDS011;44432;49.786;22.760;2023-12-20T09:47:10;15.10;;;9.00;;
58661;SDS011;44432;49.786;22.760;2023-12-20T09:52:13;11.00;;;7.30;;
58661;SDS011;44432;49.786;22.760;2023-12-20T09:54:44;17.00;;;9.40;;
58661;SDS011;44432;49.786;22.760;2023-12-20T09:57:18;18.00;;;10.40;;
58661;SDS011;44432;49.786;22.760;2023-12-20T09:59:49;14.70;;;9.30;;
58661;SDS011;44432;49.786;22.760;2023-12-20T10:02:20;22.90;;;15.50;;
58661;SDS011;44432;49.786;22.760;2023-12-20T10:04:55;18.00;;;10.20;;
58661;SDS011;44432;49.786;22.760;2023-12-20T10:07:26;14.60;;;8.60;;
58661;SDS011;44432;49.786;22.760;2023-12-20T10:09:56;14.50;;;9.00;;
58661;SDS011;44432;49.786;22.760;2023-12-20T10:12:27;17.20;;;10.20;;
58661;SDS011;44432;49.786;22.760;2023-12-20T10:14:58;14.40;;;8.80;;
58661;SDS011;44432;49.786;22.760;2023-12-20T10:17:29;18.40;;;9.10;;
58661;SDS011;44432;49.786;22.760;2023-12-20T10:20:01;20.00;;;10.10;;
58661;SDS011;44432;49.786;22.760;2023-12-20T10:22:37;20.10;;;12.10;;
58661;SDS011;44432;49.786;22.760;2023-12-20T10:25:09;15.90;;;9.10;;
58661;SDS011;44432;49.786;22.760;2023-12-20T10:27:39;13.60;;;9.50;;
58661;SDS011;44432;49.786;22.760;2023-12-20T10:30:11;16.70;;;10.00;;
58661;SDS011;44432;49.786;22.760;2023-12-20T10:32:43;13.80;;;9.70;;
58661;SDS011;44432;49.786;22.760;2023-12-20T10:35:14;14.40;;;9.80;;
58661;SDS011;44432;49.786;22.760;2023-12-20T10:37:44;15.70;;;9.90;;
58661;SDS011;44432;49.786;22.760;2023-12-20T10:40:15;15.10;;;10.30;;
58661;SDS011;44432;49.786;22.760;2023-12-20T10:42:46;18.00;;;11.30;;
58661;SDS011;44432;49.786;22.760;2023-12-20T10:45:18;22.00;;;11.80;;
58661;SDS011;44432;49.786;22.760;2023-12-20T10:47:49;16.80;;;11.00;;
58661;SDS011;44432;49.786;22.760;2023-12-20T10:50:20;21.90;;;12.40;;
58661;SDS011;44432;49.786;22.760;2023-12-20T10:52:51;15.40;;;10.50;;
58661;SDS011;44432;49.786;22.760;2023-12-20T10:55:23;19.30;;;11.70;;
58661;SDS011;44432;49.786;22.760;2023-12-20T10:57:57;18.30;;;11.20;;
58661;SDS011;44432;49.786;22.760;2023-12-20T11:00:33;18.90;;;11.50;;
58661;SDS011;44432;49.786;22.760;2023-12-20T11:03:08;22.40;;;12.20;;
58661;SDS011;44432;49.786;22.760;2023-12-20T11:05:43;17.20;;;11.30;;
58661;SDS011;44432;49.786;22.760;2023-12-20T11:08:19;20.80;;;13.10;;
58661;SDS011;44432;49.786;22.760;2023-12-20T11:10:58;22.00;;;13.10;;
58661;SDS011;44432;49.786;22.760;2023-12-20T11:13:34;22.00;;;13.20;;
58661;SDS011;44432;49.786;22.760;2023-12-20T11:16:09;41.80;;;14.60;;
58661;SDS011;44432;49.786;22.760;2023-12-20T11:18:41;23.70;;;13.80;;
58661;SDS011;44432;49.786;22.760;2023-12-20T11:21:14;33.80;;;15.50;;
58661;SDS011;44432;49.786;22.760;2023-12-20T11:23:46;28.30;;;15.60;;
58661;SDS011;44432;49.786;22.760;2023-12-20T11:26:18;25.20;;;14.90;;
58661;SDS011;44432;49.786;22.760;2023-12-20T11:28:55;22.40;;;14.60;;
58661;SDS011;44432;49.786;22.760;2023-12-20T11:32:03;26.90;;;14.80;;
58661;SDS011;44432;49.786;22.760;2023-12-20T11:34:57;34.00;;;15.30;;
58661;SDS011;44432;49.786;22.760;2023-12-20T11:37:30;23.50;;;15.20;;
58661;SDS011;44432;49.786;22.760;2023-12-20T11:40:05;28.80;;;15.40;;
58661;SDS011;44432;49.786;22.760;2023-12-20T11:42:39;22.60;;;15.10;;
58661;SDS011;44432;49.786;22.760;2023-12-20T11:47:43;22.60;;;14.80;;
58661;SDS011;44432;49.786;22.760;2023-12-20T11:50:17;22.60;;;15.20;;
58661;SDS011;44432;49.786;22.760;2023-12-20T11:52:49;29.30;;;17.40;;
58661;SDS011;44432;49.786;22.760;2023-12-20T11:55:20;29.30;;;15.70;;
58661;SDS011;44432;49.786;22.760;2023-12-20T11:57:52;25.00;;;16.70;;
58661;SDS011;44432;49.786;22.760;2023-12-20T12:00:23;25.60;;;14.80;;
58661;SDS011;44432;49.786;22.760;2023-12-20T12:02:58;21.60;;;15.30;;
58661;SDS011;44432;49.786;22.760;2023-12-20T12:05:32;22.70;;;15.10;;
58661;SDS011;44432;49.786;22.760;2023-12-20T12:08:03;31.30;;;15.20;;
58661;SDS011;44432;49.786;22.760;2023-12-20T12:10:35;23.30;;;14.00;;
58661;SDS011;44432;49.786;22.760;2023-12-20T12:13:06;21.40;;;13.40;;
58661;SDS011;44432;49.786;22.760;2023-12-20T12:15:37;20.80;;;13.90;;
58661;SDS011;44432;49.786;22.760;2023-12-20T12:18:10;22.70;;;14.40;;
58661;SDS011;44432;49.786;22.760;2023-12-20T12:20:44;20.80;;;13.90;;
58661;SDS011;44432;49.786;22.760;2023-12-20T12:23:15;28.10;;;14.20;;
58661;SDS011;44432;49.786;22.760;2023-12-20T12:25:53;23.50;;;14.30;;
58661;SDS011;44432;49.786;22.760;2023-12-20T12:28:27;24.10;;;15.40;;
58661;SDS011;44432;49.786;22.760;2023-12-20T12:30:59;26.20;;;14.70;;
58661;SDS011;44432;49.786;22.760;2023-12-20T12:33:30;24.20;;;13.90;;
58661;SDS011;44432;49.786;22.760;2023-12-20T12:36:01;22.80;;;13.90;;
58661;SDS011;44432;49.786;22.760;2023-12-20T12:38:35;19.70;;;13.20;;
58661;SDS011;44432;49.786;22.760;2023-12-20T12:41:05;21.10;;;13.30;;
58661;SDS011;44432;49.786;22.760;2023-12-20T12:43:38;23.90;;;13.40;;
58661;SDS011;44432;49.786;22.760;2023-12-20T12:46:09;22.90;;;12.80;;
58661;SDS011;44432;49.786;22.760;2023-12-20T12:48:40;24.70;;;13.00;;
58661;SDS011;44432;49.786;22.760;2023-12-20T12:51:11;25.20;;;13.30;;
58661;SDS011;44432;49.786;22.760;2023-12-20T12:53:42;23.20;;;13.30;;
58661;SDS011;44432;49.786;22.760;2023-12-20T12:56:13;27.90;;;13.10;;
58661;SDS011;44432;49.786;22.760;2023-12-20T12:58:44;23.20;;;12.40;;
58661;SDS011;44432;49.786;22.760;2023-12-20T13:01:15;22.60;;;12.60;;
58661;SDS011;44432;49.786;22.760;2023-12-20T13:03:46;19.60;;;11.60;;
58661;SDS011;44432;49.786;22.760;2023-12-20T13:06:17;20.20;;;10.90;;
58661;SDS011;44432;49.786;22.760;2023-12-20T13:08:48;19.10;;;12.10;;
58661;SDS011;44432;49.786;22.760;2023-12-20T13:11:19;21.30;;;11.30;;
58661;SDS011;44432;49.786;22.760;2023-12-20T13:13:50;25.70;;;12.90;;
58661;SDS011;44432;49.786;22.760;2023-12-20T13:16:21;12.50;;;8.90;;
58661;SDS011;44432;49.786;22.760;2023-12-20T13:18:52;21.30;;;12.20;;
58661;SDS011;44432;49.786;22.760;2023-12-20T13:21:23;16.20;;;10.80;;
58661;SDS011;44432;49.786;22.760;2023-12-20T13:23:54;13.00;;;8.70;;
58661;SDS011;44432;49.786;22.760;2023-12-20T13:26:25;13.50;;;9.20;;
58661;SDS011;44432;49.786;22.760;2023-12-20T13:28:56;12.90;;;8.20;;
58661;SDS011;44432;49.786;22.760;2023-12-20T13:31:27;11.80;;;8.10;;
58661;SDS011;44432;49.786;22.760;2023-12-20T13:33:58;12.50;;;8.80;;
58661;SDS011;44432;49.786;22.760;2023-12-20T13:36:29;14.00;;;9.30;;
58661;SDS011;44432;49.786;22.760;2023-12-20T13:39:00;17.10;;;9.90;;
58661;SDS011;44432;49.786;22.760;2023-12-20T13:41:32;18.20;;;10.20;;
58661;SDS011;44432;49.786;22.760;2023-12-20T13:44:03;16.50;;;9.50;;
58661;SDS011;44432;49.786;22.760;2023-12-20T13:46:35;13.40;;;8.30;;
58661;SDS011;44432;49.786;22.760;2023-12-20T13:49:06;16.10;;;8.90;;
58661;SDS011;44432;49.786;22.760;2023-12-20T13:51:37;14.00;;;9.30;;
58661;SDS011;44432;49.786;22.760;2023-12-20T13:54:10;15.90;;;10.40;;
58661;SDS011;44432;49.786;22.760;2023-12-20T13:56:41;17.60;;;10.70;;
58661;SDS011;44432;49.786;22.760;2023-12-20T13:59:12;16.00;;;10.20;;
58661;SDS011;44432;49.786;22.760;2023-12-20T14:01:43;30.40;;;17.80;;
58661;SDS011;44432;49.786;22.760;2023-12-20T14:04:13;38.30;;;17.60;;
58661;SDS011;44432;49.786;22.760;2023-12-20T14:06:44;20.30;;;13.80;;
58661;SDS011;44432;49.786;22.760;2023-12-20T14:09:15;21.20;;;14.80;;
58661;SDS011;44432;49.786;22.760;2023-12-20T14:11:46;32.40;;;21.50;;
58661;SDS011;44432;49.786;22.760;2023-12-20T14:14:17;28.50;;;21.30;;
58661;SDS011;44432;49.786;22.760;2023-12-20T14:16:47;24.90;;;15.50;;
58661;SDS011;44432;49.786;22.760;2023-12-20T14:19:18;28.30;;;18.60;;
58661;SDS011;44432;49.786;22.760;2023-12-20T14:21:49;31.50;;;24.60;;
58661;SDS011;44432;49.786;22.760;2023-12-20T14:24:20;28.00;;;20.00;;
58661;SDS011;44432;49.786;22.760;2023-12-20T14:26:51;24.30;;;16.50;;
58661;SDS011;44432;49.786;22.760;2023-12-20T14:29:22;20.70;;;14.20;;
58661;SDS011;44432;49.786;22.760;2023-12-20T14:31:53;21.30;;;14.50;;
58661;SDS011;44432;49.786;22.760;2023-12-20T14:34:23;20.40;;;14.20;;
58661;SDS011;44432;49.786;22.760;2023-12-20T14:36:54;23.70;;;15.50;;
58661;SDS011;44432;49.786;22.760;2023-12-20T14:39:25;24.30;;;17.20;;
58661;SDS011;44432;49.786;22.760;2023-12-20T14:41:56;21.10;;;15.40;;
58661;SDS011;44432;49.786;22.760;2023-12-20T14:44:27;38.80;;;20.40;;
58661;SDS011;44432;49.786;22.760;2023-12-20T14:46:58;33.40;;;19.60;;
58661;SDS011;44432;49.786;22.760;2023-12-20T14:49:30;23.90;;;17.40;;
58661;SDS011;44432;49.786;22.760;2023-12-20T14:52:01;28.90;;;20.10;;
58661;SDS011;44432;49.786;22.760;2023-12-20T14:54:32;32.40;;;20.00;;
58661;SDS011;44432;49.786;22.760;2023-12-20T14:57:03;22.40;;;14.60;;
58661;SDS011;44432;49.786;22.760;2023-12-20T14:59:36;29.10;;;19.00;;
58661;SDS011;44432;49.786;22.760;2023-12-20T15:02:07;26.40;;;18.20;;
58661;SDS011;44432;49.786;22.760;2023-12-20T15:04:37;24.10;;;14.90;;
58661;SDS011;44432;49.786;22.760;2023-12-20T15:07:08;27.10;;;17.50;;
58661;SDS011;44432;49.786;22.760;2023-12-20T15:09:39;35.60;;;22.70;;
58661;SDS011;44432;49.786;22.760;2023-12-20T15:12:13;19.30;;;13.10;;
58661;SDS011;44432;49.786;22.760;2023-12-20T15:14:44;27.50;;;17.60;;
58661;SDS011;44432;49.786;22.760;2023-12-20T15:17:15;37.80;;;21.50;;
58661;SDS011;44432;49.786;22.760;2023-12-20T15:19:46;21.30;;;14.90;;
58661;SDS011;44432;49.786;22.760;2023-12-20T15:22:16;36.00;;;21.50;;
58661;SDS011;44432;49.786;22.760;2023-12-20T15:24:47;26.80;;;16.40;;
58661;SDS011;44432;49.786;22.760;2023-12-20T15:27:19;23.60;;;14.60;;
58661;SDS011;44432;49.786;22.760;2023-12-20T15:29:50;30.10;;;17.50;;
58661;SDS011;44432;49.786;22.760;2023-12-20T15:32:21;39.10;;;21.20;;
58661;SDS011;44432;49.786;22.760;2023-12-20T15:34:52;48.60;;;25.10;;
58661;SDS011;44432;49.786;22.760;2023-12-20T15:37:23;34.90;;;22.80;;
58661;SDS011;44432;49.786;22.760;2023-12-20T15:39:55;28.40;;;18.90;;
58661;SDS011;44432;49.786;22.760;2023-12-20T15:42:27;30.90;;;19.80;;
58661;SDS011;44432;49.786;22.760;2023-12-20T15:44:59;28.20;;;19.90;;
58661;SDS011;44432;49.786;22.760;2023-12-20T15:47:30;24.80;;;16.20;;
58661;SDS011;44432;49.786;22.760;2023-12-20T15:50:01;43.80;;;32.60;;